Time;durP1;ratioP1;P1;durP2;ratioP2;P2;SDS_P1;SDS_P2;PMS_P1;PMS_P2;Temp;Humidity;BMP_temperature;BMP_pressure;BME280_temperature;BME280_humidity;BME280_pressure;Samples;Min_cycle;Max_cycle;Signal;HPM_P1;HPM_P2
2021/04/27 00:00:04;;;;;;;4.37;2.83;;;;;;;-0.23;81.32;101277.03;5078582;28;20191;-74
2021/04/27 00:02:29;;;;;;;3.90;3.30;;;;;;;-0.34;80.74;101267.44;5079947;28;20206;-72
2021/04/27 00:04:54;;;;;;;5.17;3.53;;;;;;;-0.44;80.75;101267.44;5079335;28;20173;-73
2021/04/27 00:07:20;;;;;;;4.27;3.00;;;;;;;-0.52;80.89;101263.94;5082497;28;20178;-73
2021/04/27 00:09:47;;;;;;;6.33;3.20;;;;;;;-0.55;81.16;101259.59;5082871;28;20524;-74
2021/04/27 00:12:13;;;;;;;11.53;3.43;;;;;;;-0.51;81.99;101265.69;5083571;28;20221;-74
2021/04/27 00:14:38;;;;;;;3.90;2.93;;;;;;;-0.52;81.66;101259.56;5081122;28;20559;-74
2021/04/27 00:17:04;;;;;;;4.90;3.03;;;;;;;-0.54;82.23;101261.31;5080079;28;20172;-73
2021/04/27 00:19:29;;;;;;;5.87;3.40;;;;;;;-0.60;82.53;101269.19;5079725;28;20194;-73
2021/04/27 00:21:54;;;;;;;3.43;2.80;;;;;;;-0.60;82.17;101261.34;5077837;28;20190;-73
2021/04/27 00:24:20;;;;;;;4.53;2.73;;;;;;;-0.64;82.50;101262.22;5078316;28;20167;-73
2021/04/27 00:26:45;;;;;;;8.80;3.00;;;;;;;-0.70;82.63;101263.09;5079099;28;20209;-73
2021/04/27 00:29:11;;;;;;;3.90;2.70;;;;;;;-0.73;82.77;101257.84;5078262;28;20182;-72
2021/04/27 00:31:36;;;;;;;3.97;3.00;;;;;;;-0.75;83.04;101259.56;5078007;28;20647;-74
2021/04/27 00:34:02;;;;;;;4.10;3.17;;;;;;;-0.79;83.69;101255.22;5079009;28;20183;-72
2021/04/27 00:36:28;;;;;;;9.87;3.00;;;;;;;-0.69;84.10;101256.09;5079058;28;20179;-73
2021/04/27 00:38:54;;;;;;;4.80;3.03;;;;;;;-0.71;83.92;101252.63;5060381;28;20195;-73
2021/04/27 00:41:20;;;;;;;6.60;4.03;;;;;;;-0.70;83.75;101241.25;5080656;28;20182;-72
2021/04/27 00:43:45;;;;;;;5.03;3.37;;;;;;;-0.76;83.64;101242.09;5084022;28;20231;-73
2021/04/27 00:46:11;;;;;;;4.20;3.40;;;;;;;-0.75;83.66;101243.84;5081970;28;20221;-74
2021/04/27 00:48:36;;;;;;;4.53;2.97;;;;;;;-0.82;83.86;101249.97;5079405;28;20171;-73
2021/04/27 00:51:01;;;;;;;4.37;2.90;;;;;;;-0.81;84.00;101245.59;5082275;28;20227;-73
2021/04/27 00:53:28;;;;;;;5.30;3.50;;;;;;;-0.81;84.28;101233.38;5080370;28;20196;-74
2021/04/27 00:55:54;;;;;;;5.07;3.43;;;;;;;-0.72;84.56;101241.25;5085083;28;20620;-74
2021/04/27 00:58:21;;;;;;;4.67;3.17;;;;;;;-0.74;83.87;101236.88;5082894;28;20198;-73
2021/04/27 01:00:47;;;;;;;6.93;3.70;;;;;;;-0.78;83.65;101236.00;5083004;28;20202;-74
2021/04/27 01:03:12;;;;;;;4.50;3.17;;;;;;;-0.84;83.93;101229.88;5083705;28;20262;-73
2021/04/27 01:05:39;;;;;;;4.30;3.53;;;;;;;-0.82;84.42;101234.25;5084628;28;20261;-71
2021/04/27 01:08:18;;;;;;;6.30;4.33;;;;;;;-0.74;84.63;101236.88;5085919;28;20209;-74
2021/04/27 01:10:56;;;;;;;4.40;3.27;;;;;;;-0.80;83.55;101234.25;5082689;28;20175;-74
2021/04/27 01:13:38;;;;;;;6.57;3.40;;;;;;;-0.90;83.39;101238.63;5079206;28;20201;-73
2021/04/27 01:16:09;;;;;;;5.57;2.93;;;;;;;-0.98;83.61;101238.63;5079823;28;20194;-72
2021/04/27 01:18:36;;;;;;;5.37;3.27;;;;;;;-1.09;82.76;101239.50;5080028;28;20191;-74
2021/04/27 01:21:02;;;;;;;5.63;3.33;;;;;;;-1.19;82.52;101242.94;5080405;28;20239;-73
2021/04/27 01:23:39;;;;;;;3.77;3.30;;;;;;;-1.31;82.63;101241.19;5079669;28;20615;-74
2021/04/27 01:26:09;;;;;;;5.93;3.20;;;;;;;-1.42;82.92;101237.69;5079604;28;20179;-73
2021/04/27 01:28:35;;;;;;;4.57;3.03;;;;;;;-1.48;83.37;101242.91;5083599;28;20175;-74
2021/04/27 01:31:01;;;;;;;3.63;2.87;;;;;;;-1.55;83.18;101239.38;5084193;28;20179;-74
2021/04/27 01:33:29;;;;;;;4.13;3.20;;;;;;;-1.57;83.68;101239.38;5079858;28;20253;-74
2021/04/27 01:35:56;;;;;;;5.10;3.40;;;;;;;-1.55;84.06;101246.34;5063558;28;20179;-74
2021/04/27 01:38:22;;;;;;;4.67;3.17;;;;;;;-1.54;84.36;101235.88;5080479;28;20199;-73
2021/04/27 01:40:48;;;;;;;5.17;3.10;;;;;;;-1.51;84.67;101237.63;5077389;28;20183;-73
2021/04/27 01:43:13;;;;;;;3.73;2.80;;;;;;;-1.49;84.94;101239.38;5077735;28;20206;-74
2021/04/27 01:45:39;;;;;;;5.03;3.47;;;;;;;-1.47;85.36;101235.06;5078770;28;20643;-75
2021/04/27 01:48:04;;;;;;;3.87;3.27;;;;;;;-1.48;85.07;101232.44;5078701;28;20183;-74
2021/04/27 01:50:30;;;;;;;5.40;3.10;;;;;;;-1.55;84.64;101228.91;5060362;28;20182;-73
2021/04/27 01:52:55;;;;;;;3.63;2.93;;;;;;;-1.48;84.16;101235.94;5077752;28;20240;-73
2021/04/27 01:55:21;;;;;;;3.80;2.77;;;;;;;-1.53;84.15;101226.28;5080203;28;20171;-74
2021/04/27 01:57:48;;;;;;;4.07;3.00;;;;;;;-1.63;83.48;101225.41;5078484;28;20225;-73
2021/04/27 02:00:17;;;;;;;6.40;3.37;;;;;;;-1.64;84.62;101229.75;5079936;28;20179;-73
2021/04/27 02:02:44;;;;;;;3.00;2.47;;;;;;;-1.64;84.63;101224.53;5077758;28;20610;-73
2021/04/27 02:05:10;;;;;;;4.13;3.10;;;;;;;-1.62;84.99;101227.13;5077561;28;20183;-73
2021/04/27 02:07:35;;;;;;;4.80;3.77;;;;;;;-1.59;85.20;101227.16;5077630;28;20254;-70
2021/04/27 02:10:05;;;;;;;5.63;3.37;;;;;;;-1.57;85.68;101230.63;5077883;28;20171;-73
2021/04/27 02:12:31;;;;;;;4.80;3.50;;;;;;;-1.49;85.96;101231.53;5076914;28;20213;-73
2021/04/27 02:14:56;;;;;;;7.17;4.60;;;;;;;-1.32;85.83;101231.59;5077581;28;20175;-72
2021/04/27 02:17:28;;;;;;;4.63;3.80;;;;;;;-1.42;85.11;101225.47;5077090;28;20720;-73
2021/04/27 02:19:54;;;;;;;5.63;3.70;;;;;;;-1.43;85.13;101220.22;5077339;28;20214;-73
2021/04/27 02:22:23;;;;;;;5.00;3.50;;;;;;;-1.47;84.86;101227.19;5060597;28;20244;-73
2021/04/27 02:24:50;;;;;;;5.57;4.37;;;;;;;-1.48;85.42;101221.97;5078794;28;20182;-73
2021/04/27 02:27:16;;;;;;;7.73;3.90;;;;;;;-1.45;85.04;101221.97;5061421;28;20182;-72
2021/04/27 02:29:41;;;;;;;6.37;3.70;;;;;;;-1.48;84.88;101224.59;5078364;28;20175;-73
2021/04/27 02:32:07;;;;;;;5.70;3.93;;;;;;;-1.53;84.50;101221.06;5076579;28;20278;-73
2021/04/27 02:34:32;;;;;;;4.70;3.17;;;;;;;-1.60;84.42;101221.03;5083163;28;20183;-72
2021/04/27 02:36:58;;;;;;;3.90;3.07;;;;;;;-1.68;84.14;101214.91;5085880;28;20179;-73
2021/04/27 02:39:23;;;;;;;6.87;3.40;;;;;;;-1.71;84.63;101209.66;5080547;28;20257;-73
2021/04/27 02:41:49;;;;;;;4.73;3.23;;;;;;;-1.74;84.43;101204.44;5077063;28;20207;-73
2021/04/27 02:44:15;;;;;;;3.90;3.00;;;;;;;-1.76;83.95;101203.56;5076645;28;20202;-73
2021/04/27 02:46:42;;;;;;;4.53;3.30;;;;;;;-1.77;83.90;101212.28;5076513;28;20241;-73
2021/04/27 02:49:08;;;;;;;5.87;3.20;;;;;;;-1.76;84.19;101215.75;5079829;28;20208;-73
2021/04/27 02:51:33;;;;;;;7.73;4.13;;;;;;;-1.69;84.44;101210.56;5082681;28;20205;-73
2021/04/27 02:53:59;;;;;;;5.27;3.83;;;;;;;-1.70;85.06;101210.53;5063636;28;20190;-72
2021/04/27 02:56:25;;;;;;;5.53;4.27;;;;;;;-1.73;84.63;101211.41;5080965;28;20167;-73
2021/04/27 02:58:51;;;;;;;5.27;3.83;;;;;;;-1.74;85.01;101204.44;5063178;28;20281;-73
2021/04/27 03:01:16;;;;;;;6.40;3.47;;;;;;;-1.77;84.90;101206.16;5078884;28;20542;-72
2021/04/27 03:03:42;;;;;;;5.20;3.40;;;;;;;-1.80;84.54;101207.03;5077727;28;20346;-72
2021/04/27 03:06:08;;;;;;;6.40;3.60;;;;;;;-1.79;84.59;101208.78;5076258;28;20173;-72
2021/04/27 03:08:33;;;;;;;6.73;3.30;;;;;;;-1.78;84.34;101204.41;5077126;28;20534;-73
2021/04/27 03:10:59;;;;;;;4.43;2.80;;;;;;;-1.85;84.25;101203.53;5074828;28;20186;-72
2021/04/27 03:13:24;;;;;;;4.67;3.07;;;;;;;-1.90;84.36;101206.09;5076473;28;20191;-73
2021/04/27 03:15:50;;;;;;;9.00;3.80;;;;;;;-1.84;84.45;101201.78;5076375;28;20212;-75
2021/04/27 03:18:15;;;;;;;9.53;3.40;;;;;;;-1.83;83.82;101200.91;5076533;28;20659;-71
2021/04/27 03:20:42;;;;;;;4.63;3.30;;;;;;;-1.85;83.34;101200.03;5074806;28;20666;-72
2021/04/27 03:23:09;;;;;;;5.30;3.20;;;;;;;-1.93;83.59;101198.25;5072944;28;20312;-72
2021/04/27 03:25:35;;;;;;;4.97;3.27;;;;;;;-1.94;83.58;101195.63;5072764;28;20202;-72
2021/04/27 03:28:00;;;;;;;3.90;3.20;;;;;;;-2.02;83.81;101198.22;5073127;28;20254;-72
2021/04/27 03:30:25;;;;;;;5.07;3.30;;;;;;;-2.01;83.82;101201.72;5073822;28;20198;-71
2021/04/27 03:32:51;;;;;;;5.50;3.50;;;;;;;-2.02;83.83;101205.19;5072452;28;20563;-72
2021/04/27 03:35:16;;;;;;;4.27;3.80;;;;;;;-2.10;83.69;101197.31;5072168;28;20175;-72
2021/04/27 03:37:42;;;;;;;5.43;3.33;;;;;;;-2.13;84.07;101199.91;5073449;28;20255;-72
2021/04/27 03:40:08;;;;;;;4.60;3.43;;;;;;;-2.12;84.05;101201.66;5073284;28;20190;-72
2021/04/27 03:42:34;;;;;;;5.07;3.17;;;;;;;-2.06;83.42;101196.47;5092408;22;20312;-69
2021/04/27 03:44:59;;;;;;;4.07;2.93;;;;;;;-2.09;83.27;101198.19;5073776;28;20626;-70
2021/04/27 03:47:24;;;;;;;4.37;3.30;;;;;;;-2.11;83.43;101189.47;5072230;28;20170;-70
2021/04/27 03:49:50;;;;;;;6.47;3.60;;;;;;;-2.11;83.28;101202.53;5073378;28;20225;-70
2021/04/27 03:52:15;;;;;;;4.17;3.10;;;;;;;-2.12;83.19;101193.81;5073056;28;20244;-70
2021/04/27 03:54:40;;;;;;;6.63;3.07;;;;;;;-2.08;82.96;101199.94;5073768;28;20171;-69
2021/04/27 03:57:06;;;;;;;5.20;3.20;;;;;;;-2.00;83.39;101200.84;5055180;28;20528;-70
2021/04/27 03:59:31;;;;;;;3.70;3.40;;;;;;;-1.97;83.09;101204.34;5073299;28;20194;-70
2021/04/27 04:01:58;;;;;;;5.17;3.17;;;;;;;-1.95;82.78;101205.22;5073100;28;20253;-69
2021/04/27 04:04:24;;;;;;;5.30;3.20;;;;;;;-1.92;82.33;101207.84;5055033;28;20167;-69
2021/04/27 04:06:49;;;;;;;3.90;2.90;;;;;;;-1.88;81.70;101199.13;5072537;28;20178;-70
2021/04/27 04:09:14;;;;;;;7.33;3.57;;;;;;;-1.83;81.24;101206.16;5072004;28;20159;-70
2021/04/27 04:11:40;;;;;;;4.60;3.47;;;;;;;-1.79;81.20;101200.94;5073064;28;20202;-69
2021/04/27 04:14:05;;;;;;;3.93;3.13;;;;;;;-1.76;80.48;101202.69;5073107;28;20718;-69
2021/04/27 04:16:30;;;;;;;4.73;3.33;;;;;;;-1.75;80.49;101199.19;5054642;28;20175;-69
2021/04/27 04:18:56;;;;;;;6.20;3.17;;;;;;;-1.72;80.05;101202.69;5072601;28;20668;-70
2021/04/27 04:21:23;;;;;;;4.43;3.50;;;;;;;-1.68;79.93;101209.69;5072557;28;20171;-70
2021/04/27 04:23:48;;;;;;;4.40;3.10;;;;;;;-1.60;80.08;101209.69;5071826;28;20280;-70
2021/04/27 04:26:14;;;;;;;5.17;2.53;;;;;;;-1.51;79.64;101209.72;5054620;28;20206;-70
2021/04/27 04:28:40;;;;;;;5.73;3.57;;;;;;;-1.35;79.92;101213.25;5076286;28;20246;-70
2021/04/27 04:31:06;;;;;;;4.37;3.47;;;;;;;-1.33;79.32;101207.16;5076413;28;20163;-70
2021/04/27 04:33:31;;;;;;;4.87;3.80;;;;;;;-1.47;79.50;101208.00;5075360;28;20191;-70
2021/04/27 04:35:56;;;;;;;7.57;3.87;;;;;;;-1.44;79.12;101206.25;5075560;28;20182;-70
2021/04/27 04:38:23;;;;;;;4.10;3.00;;;;;;;-1.35;79.66;101205.41;5076955;28;20222;-70
2021/04/27 04:40:48;;;;;;;5.50;3.43;;;;;;;-1.27;79.03;101203.66;5074911;28;20173;-70
2021/04/27 04:43:15;;;;;;;3.80;2.87;;;;;;;-1.29;79.39;101200.16;5076040;28;20203;-70
2021/04/27 04:45:40;;;;;;;4.30;3.20;;;;;;;-1.28;79.38;101207.16;5058183;28;20186;-69
2021/04/27 04:48:06;;;;;;;4.80;3.10;;;;;;;-1.21;79.57;101208.91;5074871;28;20180;-70
2021/04/27 04:50:31;;;;;;;4.03;3.33;;;;;;;-1.08;78.75;101202.81;5074682;28;20175;-70
2021/04/27 04:52:56;;;;;;;5.07;3.40;;;;;;;-0.97;78.19;101202.81;5074827;28;20203;-69
2021/04/27 04:55:21;;;;;;;4.83;3.23;;;;;;;-1.01;78.92;101204.56;5074674;28;20182;-69
2021/04/27 04:57:47;;;;;;;6.20;3.13;;;;;;;-0.90;78.66;101204.56;5076355;28;20171;-69
2021/04/27 05:00:15;;;;;;;5.93;2.90;;;;;;;-0.80;78.30;101206.28;5074557;28;20202;-69
2021/04/27 05:02:41;;;;;;;7.43;2.97;;;;;;;-0.64;77.93;101209.78;5074390;28;20203;-69
2021/04/27 05:05:07;;;;;;;6.00;2.80;;;;;;;-0.60;78.04;101208.91;5074579;28;20537;-69
2021/04/27 05:07:40;;;;;;;5.00;3.67;;;;;;;-0.48;76.99;101208.88;5058118;28;20190;-68
2021/04/27 05:10:05;;;;;;;5.93;3.77;;;;;;;-0.51;76.43;101205.38;5058546;28;20159;-69
2021/04/27 05:12:31;;;;;;;7.30;3.70;;;;;;;-0.48;76.82;101213.25;5074973;28;20551;-69
2021/04/27 05:14:56;;;;;;;9.60;3.63;;;;;;;-0.44;77.40;101210.59;5075461;28;20176;-69
2021/04/27 05:17:21;;;;;;;3.90;3.00;;;;;;;-0.35;77.77;101215.00;5075478;28;20167;-70
2021/04/27 05:19:47;;;;;;;5.67;3.57;;;;;;;-0.24;76.81;101213.19;5075362;28;20195;-70
2021/04/27 05:22:12;;;;;;;8.17;4.03;;;;;;;0.02;75.45;101215.75;5073796;28;20194;-69
2021/04/27 05:24:38;;;;;;;12.00;4.07;;;;;;;0.14;73.93;101220.06;5074008;28;20175;-69
2021/04/27 05:27:05;;;;;;;11.60;4.20;;;;;;;0.31;73.48;101215.59;5057928;28;20270;-69
2021/04/27 05:29:31;;;;;;;7.57;3.70;;;;;;;0.35;73.02;101221.72;5073772;28;20198;-69
2021/04/27 05:31:56;;;;;;;9.87;4.00;;;;;;;0.34;72.70;101220.84;5075177;28;20179;-69
2021/04/27 05:34:21;;;;;;;5.63;3.30;;;;;;;0.23;73.21;101220.91;5075863;28;20619;-70
2021/04/27 05:36:47;;;;;;;5.30;3.07;;;;;;;0.16;73.41;101224.44;5074193;28;20187;-70
2021/04/27 05:39:12;;;;;;;3.67;2.50;;;;;;;0.25;72.84;101223.50;5073397;28;20272;-69
2021/04/27 05:41:39;;;;;;;4.23;2.73;;;;;;;0.53;71.29;101222.50;5074002;28;20178;-71
2021/04/27 05:44:04;;;;;;;7.47;2.63;;;;;;;0.44;70.47;101226.94;5074052;28;20203;-70
2021/04/27 05:46:29;;;;;;;5.50;2.90;;;;;;;0.45;70.74;101228.69;5074465;28;20233;-70
2021/04/27 05:48:55;;;;;;;9.73;3.80;;;;;;;0.46;70.57;101231.28;5073817;28;20168;-72
2021/04/27 05:51:20;;;;;;;3.43;2.93;;;;;;;0.40;70.93;101227.84;5076502;28;20178;-71
2021/04/27 05:53:45;;;;;;;5.47;3.20;;;;;;;0.56;70.25;101227.72;5077099;28;20250;-70
2021/04/27 05:56:11;;;;;;;7.10;3.23;;;;;;;0.64;70.48;101225.06;5076520;28;20247;-71
2021/04/27 05:58:36;;;;;;;8.80;3.60;;;;;;;0.71;70.54;101228.50;5073842;28;20283;-70
2021/04/27 06:01:02;;;;;;;4.37;3.47;;;;;;;0.72;69.94;101235.50;5056800;28;20185;-70
2021/04/27 06:03:27;;;;;;;4.27;3.57;;;;;;;0.88;69.73;101237.16;5074650;28;20189;-71
2021/04/27 06:05:52;;;;;;;7.27;3.43;;;;;;;1.04;69.99;101227.41;5073417;28;20174;-70
2021/04/27 06:08:18;;;;;;;5.13;3.73;;;;;;;1.09;69.62;101226.47;5074547;28;20169;-69
2021/04/27 06:10:44;;;;;;;4.37;3.40;;;;;;;1.27;70.30;101233.38;5073740;28;20177;-69
2021/04/27 06:13:09;;;;;;;9.07;3.37;;;;;;;1.62;69.69;101233.03;5073465;28;20303;-70
2021/04/27 06:15:35;;;;;;;7.30;4.90;;;;;;;1.93;68.53;101230.09;5056591;28;20170;-70
2021/04/27 06:18:00;;;;;;;8.67;4.47;;;;;;;2.22;67.08;101227.09;5074095;28;20217;-70
2021/04/27 06:20:25;;;;;;;8.23;3.90;;;;;;;2.41;66.83;101228.63;5075320;28;20241;-70
2021/04/27 06:22:51;;;;;;;6.70;4.50;;;;;;;2.32;67.54;101228.75;5075313;28;20194;-70
2021/04/27 06:25:16;;;;;;;7.73;4.17;;;;;;;2.41;66.96;101231.25;5075295;28;20210;-70
2021/04/27 06:27:41;;;;;;;9.63;3.80;;;;;;;2.48;67.72;101233.78;5073553;28;20174;-70
2021/04/27 06:30:09;;;;;;;4.83;3.20;;;;;;;2.70;67.47;101239.66;5074951;28;20177;-70
2021/04/27 06:32:34;;;;;;;6.17;3.20;;;;;;;2.81;67.46;101234.22;5073114;28;20292;-71
2021/04/27 06:35:00;;;;;;;5.27;3.17;;;;;;;2.92;66.66;101236.69;5074117;28;20224;-70
2021/04/27 06:37:25;;;;;;;4.57;3.30;;;;;;;3.00;65.69;101234.81;5074065;28;20178;-70
2021/04/27 06:39:50;;;;;;;4.37;3.27;;;;;;;3.11;65.77;101230.25;5074811;28;20210;-72
2021/04/27 06:42:16;;;;;;;7.70;3.83;;;;;;;3.27;65.63;101234.34;5083843;28;20226;-71
2021/04/27 06:44:42;;;;;;;7.17;3.53;;;;;;;3.44;65.06;101234.09;5084277;28;20162;-70
2021/04/27 06:47:09;;;;;;;7.27;3.57;;;;;;;3.54;64.20;101233.03;5076284;28;20643;-70
2021/04/27 06:49:34;;;;;;;6.20;3.63;;;;;;;3.56;62.49;101228.59;5073739;28;20191;-69
2021/04/27 06:52:00;;;;;;;6.13;4.23;;;;;;;3.63;62.34;101221.41;5074607;28;20234;-70
2021/04/27 06:54:25;;;;;;;9.07;4.00;;;;;;;3.74;61.77;101227.41;5073434;28;20635;-71
2021/04/27 06:56:51;;;;;;;6.60;3.87;;;;;;;3.85;60.79;101232.47;5073267;28;20174;-71
2021/04/27 06:59:19;;;;;;;4.47;3.43;;;;;;;4.01;60.15;101229.50;5072651;28;20195;-71
2021/04/27 07:01:45;;;;;;;6.53;3.03;;;;;;;4.08;59.66;101228.47;5072751;28;20185;-71
2021/04/27 07:04:10;;;;;;;3.73;3.03;;;;;;;4.15;59.05;101226.59;5073171;28;20199;-71
2021/04/27 07:06:35;;;;;;;4.33;2.90;;;;;;;4.34;57.38;101224.44;5075336;28;20173;-71
2021/04/27 07:09:01;;;;;;;4.53;2.93;;;;;;;4.35;56.93;101223.53;5073455;28;20237;-71
2021/04/27 07:11:26;;;;;;;6.03;2.53;;;;;;;4.31;56.59;101219.22;5073556;28;20171;-71
2021/04/27 07:13:51;;;;;;;5.70;1.43;;;;;;;4.50;47.19;101209.13;5075408;28;20204;-70
2021/04/27 07:16:17;;;;;;;2.67;1.30;;;;;;;4.83;47.50;101210.13;5074198;28;20630;-71
2021/04/27 07:18:43;;;;;;;0.80;0.80;;;;;;;4.98;44.73;101210.63;5055177;28;20205;-71
2021/04/27 07:21:08;;;;;;;1.40;0.67;;;;;;;5.12;43.24;101205.00;5072240;28;20171;-70
2021/04/27 07:23:34;;;;;;;2.40;1.40;;;;;;;5.37;44.28;101217.63;5055291;28;20240;-70
2021/04/27 07:25:59;;;;;;;3.23;1.33;;;;;;;5.38;43.09;101212.31;5072237;28;20183;-70
2021/04/27 07:28:24;;;;;;;0.97;0.80;;;;;;;5.57;42.04;101217.97;5072139;28;20170;-70
2021/04/27 07:30:51;;;;;;;2.83;0.70;;;;;;;5.39;40.61;101213.16;5073588;28;20194;-69
2021/04/27 07:33:17;;;;;;;0.70;0.70;;;;;;;5.65;40.98;101208.94;5071690;28;20291;-71
2021/04/27 07:35:42;;;;;;;1.87;0.83;;;;;;;5.64;42.10;101209.84;5073708;28;20182;-70
2021/04/27 07:38:07;;;;;;;1.20;1.00;;;;;;;5.56;43.04;101213.59;5072367;28;20175;-69
2021/04/27 07:40:36;;;;;;;5.43;1.13;;;;;;;5.94;43.08;101208.16;5072942;28;20201;-69
2021/04/27 07:43:03;;;;;;;1.50;0.70;;;;;;;5.93;42.89;101210.84;5073131;28;20245;-69
2021/04/27 07:45:33;;;;;;;2.53;0.90;;;;;;;6.04;42.98;101208.78;5071998;28;20182;-70
2021/04/27 07:48:01;;;;;;;1.37;0.93;;;;;;;5.91;43.42;101212.69;5072185;28;20155;-70
2021/04/27 07:50:26;;;;;;;1.43;0.90;;;;;;;6.15;43.50;101208.47;5072345;28;20225;-71
2021/04/27 07:52:52;;;;;;;1.80;0.90;;;;;;;6.50;43.05;101202.16;5072061;28;20203;-71
2021/04/27 07:55:18;;;;;;;2.77;1.27;;;;;;;6.48;43.76;101199.53;5071775;28;20577;-70
2021/04/27 07:57:43;;;;;;;1.33;1.00;;;;;;;6.55;42.16;101202.88;5071704;28;20169;-71
2021/04/27 08:00:10;;;;;;;4.57;1.07;;;;;;;6.36;41.61;101202.56;5073215;28;20199;-70
2021/04/27 08:02:36;;;;;;;2.80;1.30;;;;;;;6.65;41.14;101192.84;5077621;28;20195;-70
2021/04/27 08:05:02;;;;;;;2.47;1.37;;;;;;;6.40;41.22;101200.69;5078349;28;20231;-70
2021/04/27 08:07:27;;;;;;;2.13;1.40;;;;;;;6.63;42.38;101203.50;5079278;28;20182;-71
2021/04/27 08:09:53;;;;;;;2.87;1.30;;;;;;;6.76;42.38;101201.34;5077111;28;20262;-71
2021/04/27 08:12:18;;;;;;;1.70;1.23;;;;;;;6.91;41.46;101198.22;5077771;28;20247;-71
2021/04/27 08:14:43;;;;;;;3.60;1.53;;;;;;;7.17;39.73;101192.06;5080162;28;20170;-71
2021/04/27 08:17:09;;;;;;;2.97;1.20;;;;;;;7.15;38.92;101205.38;5060948;28;20273;-71
2021/04/27 08:19:35;;;;;;;2.27;1.40;;;;;;;7.40;36.06;101194.78;5077622;28;20220;-71
2021/04/27 08:22:00;;;;;;;2.90;1.43;;;;;;;7.42;35.81;101187.63;5077635;28;20252;-71
2021/04/27 08:24:26;;;;;;;4.17;1.80;;;;;;;7.49;34.37;101190.97;5059174;28;20202;-71
2021/04/27 08:26:51;;;;;;;4.60;1.70;;;;;;;7.63;35.24;101182.53;5075416;28;20589;-71
2021/04/27 08:29:16;;;;;;;2.60;1.60;;;;;;;7.62;35.74;101183.44;5076107;28;20167;-70
2021/04/27 08:31:42;;;;;;;2.67;1.60;;;;;;;7.77;36.15;101190.84;5076465;28;20167;-70
2021/04/27 08:34:07;;;;;;;4.63;1.57;;;;;;;8.07;35.93;101188.88;5074957;28;20194;-70
2021/04/27 08:36:32;;;;;;;3.97;1.80;;;;;;;7.92;37.04;101189.47;5075393;28;20179;-70
2021/04/27 08:38:58;;;;;;;4.20;1.63;;;;;;;8.06;36.16;101192.47;5074910;28;20201;-69
2021/04/27 08:41:25;;;;;;;2.43;1.60;;;;;;;7.96;36.69;101185.75;5076353;28;20655;-70
2021/04/27 08:43:51;;;;;;;5.07;2.00;;;;;;;8.04;37.33;101192.53;5076691;28;20247;-70
2021/04/27 08:46:16;;;;;;;4.23;2.23;;;;;;;8.20;36.72;101191.97;5076026;28;20167;-70
2021/04/27 08:48:42;;;;;;;2.93;1.73;;;;;;;8.28;37.15;101192.56;5076447;28;20583;-70
2021/04/27 08:51:08;;;;;;;2.33;1.80;;;;;;;8.15;37.94;101194.78;5074980;28;20174;-71
2021/04/27 08:53:33;;;;;;;3.50;1.73;;;;;;;8.37;37.26;101182.47;5076983;28;20194;-71
2021/04/27 08:55:59;;;;;;;3.90;1.90;;;;;;;8.56;36.59;101187.09;5079240;28;20530;-71
2021/04/27 08:58:24;;;;;;;1.83;1.33;;;;;;;8.56;37.19;101181.75;5077786;28;20170;-71
2021/04/27 09:00:49;;;;;;;3.60;1.60;;;;;;;8.62;35.22;101171.75;5076618;28;20183;-71
2021/04/27 09:03:16;;;;;;;3.20;2.10;;;;;;;8.29;35.67;101181.84;5076812;28;20191;-70
2021/04/27 09:05:42;;;;;;;3.50;1.83;;;;;;;8.45;35.53;101175.03;5057748;28;20171;-70
2021/04/27 09:08:08;;;;;;;3.40;1.93;;;;;;;8.33;36.18;101175.53;5075742;28;20210;-69
2021/04/27 09:10:39;;;;;;;4.10;1.67;;;;;;;8.15;37.08;101160.22;5075966;28;20166;-69
2021/04/27 09:13:13;;;;;;;4.73;2.07;;;;;;;8.31;37.42;101160.53;5074076;28;20631;-69
2021/04/27 09:15:46;;;;;;;8.53;2.37;;;;;;;8.27;36.59;101161.56;5057675;28;20175;-70
2021/04/27 09:18:30;;;;;;;2.43;1.63;;;;;;;8.63;35.97;101152.19;5075708;28;20203;-71
2021/04/27 09:21:00;;;;;;;4.97;1.90;;;;;;;9.04;35.14;101158.50;5074412;28;20297;-70
2021/04/27 09:23:25;;;;;;;4.97;1.63;;;;;;;9.09;33.32;101159.16;5074228;28;20244;-70
2021/04/27 09:26:12;;;;;;;2.83;1.60;;;;;;;9.24;31.84;101149.66;5075105;28;20262;-71
2021/04/27 09:28:42;;;;;;;4.83;1.70;;;;;;;9.54;33.04;101147.47;5074333;28;20163;-71
2021/04/27 09:31:41;;;;;;;22.60;4.10;;;;;;;9.71;31.83;101158.28;5075021;28;20220;-71
2021/04/27 09:34:23;;;;;;;3.47;1.53;;;;;;;9.64;31.00;101146.13;5041624;28;20285;-71
2021/04/27 09:36:51;;;;;;;6.07;1.50;;;;;;;9.45;32.04;101147.88;5057070;28;20198;-71
2021/04/27 09:39:51;;;;;;;2.77;1.60;;;;;;;9.77;31.13;101141.16;5073958;28;20198;-71
2021/04/27 09:42:24;;;;;;;1.80;1.20;;;;;;;9.74;30.09;101135.09;5062613;28;20222;-71
2021/04/27 09:44:50;;;;;;;2.30;1.17;;;;;;;9.67;30.73;101139.84;5073761;28;20182;-71
2021/04/27 09:47:29;;;;;;;2.07;1.37;;;;;;;10.10;30.76;101135.22;5057087;28;20210;-71
2021/04/27 09:50:02;;;;;;;3.07;1.20;;;;;;;9.98;30.14;101136.63;5075349;28;20159;-71
2021/04/27 09:52:29;;;;;;;2.50;1.10;;;;;;;10.06;30.50;101121.16;5073742;28;20236;-71
2021/04/27 09:54:58;;;;;;;3.13;1.47;;;;;;;9.77;31.07;101127.81;5057324;28;20639;-71
2021/04/27 09:57:25;;;;;;;2.43;1.53;;;;;;;9.73;31.03;101133.34;5074146;28;20186;-70
2021/04/27 09:59:50;;;;;;;2.03;1.30;;;;;;;10.24;29.77;101123.00;5092571;28;20194;-71
2021/04/27 10:02:20;;;;;;;2.50;1.40;;;;;;;10.33;29.93;101108.34;5069888;28;20217;-70
2021/04/27 10:04:45;;;;;;;2.93;1.27;;;;;;;10.04;29.98;101115.03;5076052;28;20178;-70
2021/04/27 10:07:11;;;;;;;2.07;1.40;;;;;;;10.19;29.50;101116.97;5075617;28;20546;-70
2021/04/27 10:09:36;;;;;;;1.47;1.10;;;;;;;10.43;29.98;101107.00;5073220;28;20163;-70
2021/04/27 10:12:04;;;;;;;5.33;1.30;;;;;;;9.97;30.65;101110.91;5074930;28;20174;-70
2021/04/27 10:14:29;;;;;;;1.97;1.00;;;;;;;10.37;30.16;101099.25;5057475;28;20252;-69
2021/04/27 10:16:55;;;;;;;3.10;1.60;;;;;;;10.86;29.14;101105.78;5074423;28;20174;-70
2021/04/27 10:19:20;;;;;;;2.87;1.07;;;;;;;10.96;28.94;101100.81;5072984;28;20202;-70
2021/04/27 10:21:48;;;;;;;3.40;1.80;;;;;;;10.92;28.75;101086.75;5073647;28;20186;-71
2021/04/27 10:24:15;;;;;;;2.67;1.13;;;;;;;11.03;28.35;101099.56;5074923;28;20221;-71
2021/04/27 10:26:46;;;;;;;1.77;1.10;;;;;;;9.99;29.63;101090.38;5073822;28;20732;-70
2021/04/27 10:29:25;;;;;;;2.07;1.00;;;;;;;10.34;28.73;101081.59;5073601;28;20174;-70
2021/04/27 10:32:20;;;;;;;2.00;1.27;;;;;;;11.07;28.96;101085.13;5073154;28;20167;-72
2021/04/27 10:35:00;;;;;;;4.33;1.40;;;;;;;11.38;27.06;101079.06;5074364;28;20171;-70
2021/04/27 10:37:27;;;;;;;4.23;1.50;;;;;;;11.49;27.54;101079.34;5073953;28;20174;-70
2021/04/27 10:39:53;;;;;;;3.77;1.60;;;;;;;11.77;27.27;101078.75;5056444;28;20199;-70
2021/04/27 10:42:24;;;;;;;2.00;1.10;;;;;;;11.50;27.06;101070.38;5073899;28;20563;-71
2021/04/27 10:44:55;;;;;;;2.97;1.60;;;;;;;11.72;26.63;101069.25;5073962;28;20170;-71
2021/04/27 10:47:21;;;;;;;5.23;1.20;;;;;;;11.96;26.86;101067.97;5074333;28;20159;-71
2021/04/27 10:49:47;;;;;;;2.93;1.13;;;;;;;11.84;27.47;101079.31;5072473;28;20228;-71
2021/04/27 10:52:45;;;;;;;2.50;1.10;;;;;;;11.66;26.96;101066.91;5073843;28;20658;-71
2021/04/27 10:55:29;;;;;;;2.67;1.30;;;;;;;11.96;27.34;101064.44;5050726;28;20182;-71
2021/04/27 10:58:00;;;;;;;2.23;0.90;;;;;;;11.91;27.28;101062.00;5072463;28;20213;-71
2021/04/27 11:00:34;;;;;;;4.13;1.20;;;;;;;14.08;24.63;101050.81;5056482;28;20276;-70
2021/04/27 11:03:16;;;;;;;1.50;1.00;;;;;;;16.27;22.38;101052.84;5073406;28;20190;-69
2021/04/27 11:05:58;;;;;;;2.73;0.90;;;;;;;16.84;21.03;101055.78;5072431;28;20627;-70
2021/04/27 11:08:43;;;;;;;1.03;0.90;;;;;;;17.62;20.45;101048.88;5072433;28;20611;-71
2021/04/27 11:11:25;;;;;;;2.50;0.90;;;;;;;17.01;22.00;101040.16;5073229;28;20683;-70
2021/04/27 11:13:52;;;;;;;1.50;0.80;;;;;;;17.45;20.90;101050.19;5072207;28;20202;-70
2021/04/27 11:16:29;;;;;;;3.97;0.90;;;;;;;20.59;18.06;101045.19;5055380;28;20221;-70
2021/04/27 11:19:10;;;;;;;4.07;0.90;;;;;;;21.56;17.24;101042.44;5072088;28;20193;-70
2021/04/27 11:21:36;;;;;;;1.73;0.90;;;;;;;22.11;16.29;101041.56;5073503;28;20193;-70
2021/04/27 11:24:07;;;;;;;1.73;1.00;;;;;;;21.78;16.66;101039.38;5072162;28;20191;-70
2021/04/27 11:26:32;;;;;;;1.77;1.00;;;;;;;21.30;16.78;101042.22;5072080;28;20162;-71
2021/04/27 11:29:05;;;;;;;1.70;0.90;;;;;;;20.29;17.13;101036.09;5071949;28;20166;-71